Time;durP1;ratioP1;P1;durP2;ratioP2;P2;SDS_P1;SDS_P2;PMS_P1;PMS_P2;Temp;Humidity;BMP_temperature;BMP_pressure;BME280_temperature;BME280_humidity;BME280_pressure;Samples;Min_cycle;Max_cycle;Signal;HPM_P1;HPM_P2
2022/03/25 00:00:26;;;;;;;24.97;20.70;;;10.20;36.70;;;;;;5114629;28;20880;-38
2022/03/25 00:02:53;;;;;;;24.00;19.97;;;10.20;36.80;;;;;;5113505;28;20838;-39
2022/03/25 00:05:19;;;;;;;24.10;19.23;;;10.10;36.80;;;;;;5116289;28;20417;-40
2022/03/25 00:07:45;;;;;;;22.23;19.93;;;10.10;36.90;;;;;;5115353;28;20491;-38
2022/03/25 00:10:10;;;;;;;28.67;21.93;;;10.00;37.00;;;;;;5116808;28;20426;-40
2022/03/25 00:12:36;;;;;;;21.80;19.33;;;10.00;37.10;;;;;;5115820;28;20220;-40
2022/03/25 00:15:02;;;;;;;22.73;19.47;;;10.00;37.20;;;;;;5116433;28;20176;-40
2022/03/25 00:17:28;;;;;;;24.13;19.37;;;9.90;38.00;;;;;;5115117;28;20842;-40
2022/03/25 00:19:53;;;;;;;22.10;19.20;;;9.90;38.10;;;;;;5119498;28;20418;-39
2022/03/25 00:22:19;;;;;;;21.70;19.10;;;9.90;38.20;;;;;;5119067;28;20184;-40
2022/03/25 00:24:45;;;;;;;25.20;20.20;;;9.80;38.20;;;;;;5119551;28;20192;-40
2022/03/25 00:27:11;;;;;;;26.53;20.17;;;9.80;38.30;;;;;;5116925;28;20176;-40
2022/03/25 00:29:37;;;;;;;25.37;20.10;;;9.70;38.40;;;;;;5120543;28;20248;-38
2022/03/25 00:32:03;;;;;;;23.60;20.00;;;9.70;38.40;;;;;;5117184;28;20719;-40
2022/03/25 00:34:29;;;;;;;24.00;19.20;;;9.70;38.50;;;;;;5118212;28;20592;-41
2022/03/25 00:36:54;;;;;;;23.93;20.77;;;9.60;38.60;;;;;;5118210;28;20478;-39
2022/03/25 00:39:20;;;;;;;22.63;19.87;;;9.60;38.70;;;;;;5119450;28;20470;-39
2022/03/25 00:41:47;;;;;;;29.60;21.53;;;9.60;38.80;;;;;;5117191;28;20310;-40
2022/03/25 00:44:13;;;;;;;27.13;22.83;;;9.50;38.80;;;;;;5120082;27;20876;-40
2022/03/25 00:46:39;;;;;;;26.00;22.20;;;9.50;38.90;;;;;;5118710;28;20446;-40
2022/03/25 00:49:05;;;;;;;26.93;19.70;;;9.50;39.00;;;;;;5120304;27;20428;-39
2022/03/25 00:51:31;;;;;;;24.50;21.80;;;9.40;39.00;;;;;;5118648;28;20406;-39
2022/03/25 00:53:57;;;;;;;26.30;19.30;;;9.40;39.10;;;;;;5119842;28;20465;-41
2022/03/25 00:56:24;;;;;;;23.13;20.63;;;9.30;39.10;;;;;;5119514;28;20414;-40
2022/03/25 00:58:50;;;;;;;24.47;19.30;;;9.30;39.20;;;;;;5119968;28;20188;-39
2022/03/25 01:01:16;;;;;;;24.63;20.13;;;9.30;39.40;;;;;;5120365;28;20444;-41
2022/03/25 01:03:42;;;;;;;23.77;20.03;;;9.20;39.40;;;;;;5119830;28;20827;-41
2022/03/25 01:06:08;;;;;;;25.17;18.67;;;9.20;39.40;;;;;;5119186;28;20229;-40
2022/03/25 01:08:35;;;;;;;25.43;18.83;;;9.10;39.50;;;;;;5119089;27;20425;-40
2022/03/25 01:11:01;;;;;;;24.27;20.23;;;9.10;39.60;;;;;;5119367;28;20180;-40
2022/03/25 01:13:32;;;;;;;20.30;18.13;;;9.10;39.70;;;;;;5118878;28;20709;-40
2022/03/25 01:15:58;;;;;;;21.57;19.07;;;9.00;39.80;;;;;;5119598;28;20688;-41
2022/03/25 01:18:24;;;;;;;26.67;21.57;;;9.00;39.80;;;;;;5119607;28;20437;-39
2022/03/25 01:20:49;;;;;;;26.63;21.20;;;9.00;39.90;;;;;;5119722;28;20180;-40
2022/03/25 01:23:15;;;;;;;24.73;20.30;;;8.90;39.90;;;;;;5118025;28;20520;-40
2022/03/25 01:25:40;;;;;;;23.50;19.57;;;8.90;39.90;;;;;;5119709;28;20577;-40
2022/03/25 01:28:06;;;;;;;25.87;20.93;;;8.90;40.00;;;;;;5118349;28;20192;-41
2022/03/25 01:30:32;;;;;;;26.73;20.80;;;8.90;40.00;;;;;;5119513;28;20202;-39
2022/03/25 01:32:58;;;;;;;23.67;21.17;;;8.80;40.00;;;;;;5119688;28;20210;-39
2022/03/25 01:35:24;;;;;;;23.90;20.27;;;8.80;40.10;;;;;;5120375;28;20259;-41
2022/03/25 01:37:50;;;;;;;24.17;21.07;;;8.80;40.20;;;;;;5120768;28;20426;-43
2022/03/25 01:40:15;;;;;;;23.37;19.30;;;8.80;40.30;;;;;;5120464;28;20432;-40
2022/03/25 01:42:41;;;;;;;25.00;20.57;;;8.70;40.30;;;;;;5120881;28;20184;-41
2022/03/25 01:45:11;;;;;;;25.00;20.73;;;8.70;40.40;;;;;;5117662;28;20189;-42
2022/03/25 01:47:37;;;;;;;25.67;20.40;;;8.70;40.40;;;;;;5119490;28;20952;-41
2022/03/25 01:50:03;;;;;;;24.73;19.03;;;8.60;40.40;;;;;;5116395;27;20445;-40
2022/03/25 01:52:29;;;;;;;24.70;19.67;;;8.60;40.50;;;;;;5118365;28;20793;-39
2022/03/25 01:55:12;;;;;;;30.13;20.50;;;8.60;40.50;;;;;;5118500;28;20521;-41
2022/03/25 01:57:37;;;;;;;25.20;20.60;;;8.60;40.60;;;;;;5122210;28;20426;-40
2022/03/25 02:00:06;;;;;;;28.23;21.67;;;8.50;40.60;;;;;;5120450;28;20788;-42
2022/03/25 02:02:32;;;;;;;27.03;20.77;;;8.50;40.60;;;;;;5122522;28;20191;-41
2022/03/25 02:04:59;;;;;;;25.67;21.40;;;8.50;40.70;;;;;;5118991;28;20755;-40
2022/03/25 02:10:47;;;;;;;24.00;19.73;;;8.40;40.70;;;;;;5117689;28;20699;-40
2022/03/25 02:13:13;;;;;;;27.87;21.43;;;8.40;40.80;;;;;;5118548;28;20461;-42
2022/03/25 02:15:43;;;;;;;25.37;22.07;;;8.40;40.90;;;;;;5117297;28;20255;-39
2022/03/25 02:18:14;;;;;;;25.37;21.50;;;8.30;40.90;;;;;;5118947;28;20165;-40
2022/03/25 02:20:40;;;;;;;26.07;20.37;;;8.30;41.00;;;;;;5117476;28;20433;-41
2022/03/25 02:23:07;;;;;;;24.43;20.70;;;8.30;41.10;;;;;;5119761;28;20528;-41
2022/03/25 02:25:32;;;;;;;23.67;19.97;;;8.20;41.20;;;;;;5118729;28;20448;-40
2022/03/25 02:27:59;;;;;;;26.03;21.47;;;8.20;41.20;;;;;;5121748;28;20490;-42
2022/03/25 02:30:28;;;;;;;23.53;20.27;;;8.20;41.30;;;;;;5117819;27;20253;-40
2022/03/25 02:32:57;;;;;;;27.07;22.50;;;8.10;41.20;;;;;;5118448;28;20507;-40
2022/03/25 02:35:44;;;;;;;24.73;21.13;;;8.10;41.30;;;;;;5118426;28;20505;-40
2022/03/25 02:38:13;;;;;;;23.70;21.10;;;8.10;41.30;;;;;;5120769;28;20410;-40
2022/03/25 02:40:39;;;;;;;28.43;22.40;;;8.10;41.40;;;;;;5118093;28;20422;-43
2022/03/25 02:43:06;;;;;;;24.93;20.33;;;8.00;41.40;;;;;;5114227;28;20442;-43
2022/03/25 02:45:32;;;;;;;23.53;21.00;;;8.00;41.50;;;;;;5118373;28;20426;-40
2022/03/25 02:47:59;;;;;;;23.53;19.60;;;7.90;41.60;;;;;;5115575;28;20692;-42
2022/03/25 02:50:25;;;;;;;28.00;21.03;;;8.00;41.70;;;;;;5117699;28;20176;-40
2022/03/25 02:52:52;;;;;;;24.60;19.17;;;7.90;41.70;;;;;;5115917;28;20704;-41
2022/03/25 02:55:18;;;;;;;25.53;21.40;;;7.90;41.80;;;;;;5117636;28;20439;-40
2022/03/25 02:57:44;;;;;;;24.97;21.73;;;7.80;41.80;;;;;;5116179;28;20426;-40
2022/03/25 03:00:10;;;;;;;24.13;20.90;;;7.80;41.90;;;;;;5117711;28;20679;-40
2022/03/25 03:02:37;;;;;;;27.40;22.30;;;7.80;42.00;;;;;;5116193;27;20233;-41
2022/03/25 03:05:04;;;;;;;29.37;22.30;;;7.70;42.10;;;;;;5117338;28;20524;-40
2022/03/25 03:07:30;;;;;;;24.53;21.17;;;7.70;42.20;;;;;;5116281;28;20418;-41
2022/03/25 03:09:56;;;;;;;24.40;21.70;;;7.70;42.20;;;;;;5116927;28;20432;-40
2022/03/25 03:12:22;;;;;;;26.43;21.53;;;7.70;42.30;;;;;;5115186;28;20293;-40
2022/03/25 03:14:48;;;;;;;26.30;21.40;;;7.60;42.30;;;;;;5117242;28;20176;-42
2022/03/25 03:17:13;;;;;;;25.70;20.93;;;7.60;42.40;;;;;;5117026;28;20391;-42
2022/03/25 03:19:39;;;;;;;24.83;20.53;;;7.60;42.40;;;;;;5115332;28;20240;-40
2022/03/25 03:22:05;;;;;;;22.77;20.13;;;7.60;42.50;;;;;;5116363;28;20275;-40
2022/03/25 03:24:31;;;;;;;26.30;21.33;;;7.60;42.60;;;;;;5115460;28;20434;-41
2022/03/25 03:26:58;;;;;;;25.40;21.70;;;7.50;42.70;;;;;;5116388;28;20453;-41
2022/03/25 03:29:24;;;;;;;27.30;22.33;;;7.50;42.80;;;;;;5115522;28;20422;-40
2022/03/25 03:31:50;;;;;;;26.30;21.90;;;7.50;42.80;;;;;;5116652;28;20429;-40
2022/03/25 03:34:16;;;;;;;26.60;21.93;;;7.40;42.90;;;;;;5116352;28;20687;-40
2022/03/25 03:36:41;;;;;;;26.60;21.10;;;7.40;42.90;;;;;;5116120;28;20300;-40
2022/03/25 03:39:08;;;;;;;23.90;21.23;;;7.40;43.00;;;;;;5116984;28;20426;-42
2022/03/25 03:41:33;;;;;;;25.80;20.53;;;7.40;43.10;;;;;;5115762;28;20465;-40
2022/03/25 03:44:00;;;;;;;26.87;19.90;;;7.40;43.10;;;;;;5116074;28;20418;-40
2022/03/25 03:46:26;;;;;;;27.53;20.60;;;7.30;43.20;;;;;;5115764;28;20191;-40
2022/03/25 03:48:51;;;;;;;25.37;20.47;;;7.30;43.30;;;;;;5115788;28;20421;-41
2022/03/25 03:51:17;;;;;;;26.73;21.50;;;7.30;43.40;;;;;;5114929;28;20426;-40
2022/03/25 03:53:43;;;;;;;25.93;21.13;;;7.20;43.40;;;;;;5119008;28;20257;-41
2022/03/25 03:56:09;;;;;;;24.73;19.53;;;7.20;43.50;;;;;;5120793;28;20279;-40
2022/03/25 03:58:34;;;;;;;24.03;20.50;;;7.20;43.60;;;;;;5119225;28;20184;-40
2022/03/25 04:01:01;;;;;;;26.40;21.07;;;7.20;43.60;;;;;;5120487;28;20410;-41
2022/03/25 04:03:26;;;;;;;24.60;21.47;;;7.10;43.70;;;;;;5119385;28;20487;-41
2022/03/25 04:05:52;;;;;;;23.80;20.40;;;7.10;43.80;;;;;;5120075;27;20418;-40
2022/03/25 04:08:18;;;;;;;27.10;22.70;;;7.00;43.80;;;;;;5117486;28;20198;-40
2022/03/25 04:10:44;;;;;;;25.83;20.90;;;7.00;43.90;;;;;;5119068;28;21116;-42
2022/03/25 04:13:09;;;;;;;26.10;22.43;;;7.00;44.00;;;;;;5119242;27;20237;-40
2022/03/25 04:15:35;;;;;;;26.87;21.73;;;7.00;44.10;;;;;;5118242;28;20200;-41
2022/03/25 04:18:01;;;;;;;29.10;20.33;;;7.00;44.20;;;;;;5118734;28;20433;-40
2022/03/25 04:20:26;;;;;;;25.93;21.13;;;6.90;44.20;;;;;;5117294;28;20179;-41
2022/03/25 04:22:52;;;;;;;26.83;20.90;;;6.90;44.30;;;;;;5119564;28;20558;-40
2022/03/25 04:25:18;;;;;;;24.70;20.60;;;6.90;44.40;;;;;;5119247;28;20195;-39
2022/03/25 04:27:47;;;;;;;27.40;20.77;;;6.90;44.40;;;;;;5119670;28;20566;-39
2022/03/25 04:30:16;;;;;;;27.67;21.57;;;6.90;44.60;;;;;;5117470;28;20425;-40
2022/03/25 04:32:41;;;;;;;26.43;20.57;;;6.80;44.60;;;;;;5118630;28;20503;-39
2022/03/25 04:35:08;;;;;;;26.40;22.10;;;6.80;44.70;;;;;;5117546;28;20497;-40
2022/03/25 04:37:33;;;;;;;26.30;20.73;;;6.80;44.70;;;;;;5118153;28;20168;-40
2022/03/25 04:39:59;;;;;;;24.63;21.00;;;6.80;44.80;;;;;;5116750;28;20532;-39
2022/03/25 04:42:25;;;;;;;27.93;21.20;;;6.80;44.90;;;;;;5117650;28;20180;-40
2022/03/25 04:44:51;;;;;;;26.70;22.10;;;6.70;44.90;;;;;;5117092;28;20691;-40
2022/03/25 04:47:17;;;;;;;27.40;21.00;;;6.70;45.40;;;;;;5119255;28;20414;-41
2022/03/25 04:49:43;;;;;;;28.90;20.63;;;6.70;45.10;;;;;;5118459;28;20864;-42
2022/03/25 04:52:08;;;;;;;27.73;21.77;;;6.70;45.20;;;;;;5118362;28;20875;-41
2022/03/25 04:54:34;;;;;;;27.83;20.53;;;6.60;45.30;;;;;;5115963;28;20177;-41
2022/03/25 04:57:00;;;;;;;26.07;20.20;;;6.60;45.40;;;;;;5119317;28;20418;-42
2022/03/25 04:59:26;;;;;;;23.77;19.73;;;6.60;45.50;;;;;;5117579;28;20188;-41
2022/03/25 05:01:51;;;;;;;25.23;19.90;;;6.60;45.70;;;;;;5119676;28;20539;-42
2022/03/25 05:04:17;;;;;;;28.83;22.27;;;6.60;45.80;;;;;;5116122;28;20184;-39
2022/03/25 05:06:43;;;;;;;23.83;19.13;;;6.60;45.90;;;;;;5118387;28;20214;-39
2022/03/25 05:09:10;;;;;;;24.60;20.33;;;6.60;46.00;;;;;;5117392;27;20596;-40
2022/03/25 05:11:37;;;;;;;26.60;21.53;;;6.60;46.00;;;;;;5118995;28;20180;-39
2022/03/25 05:14:04;;;;;;;28.10;21.43;;;6.60;46.00;;;;;;5118917;28;21308;-40
2022/03/25 05:16:30;;;;;;;24.83;19.57;;;6.60;46.00;;;;;;5115930;28;20434;-39
2022/03/25 05:18:55;;;;;;;26.87;20.23;;;6.60;46.00;;;;;;5118413;28;20421;-39
2022/03/25 05:21:21;;;;;;;25.83;21.37;;;6.60;46.00;;;;;;5117260;28;20172;-40
2022/03/25 05:23:47;;;;;;;27.40;21.70;;;6.60;46.00;;;;;;5118693;28;20176;-38
2022/03/25 05:26:12;;;;;;;24.20;20.47;;;6.60;46.10;;;;;;5114650;28;20245;-39
2022/03/25 05:28:38;;;;;;;26.00;20.17;;;6.60;46.20;;;;;;5115185;28;20449;-41
2022/03/25 05:31:04;;;;;;;28.97;23.20;;;6.60;46.20;;;;;;5115025;28;20221;-39
2022/03/25 05:33:30;;;;;;;27.50;22.90;;;6.60;46.30;;;;;;5118040;28;20360;-38
2022/03/25 05:35:55;;;;;;;27.77;21.93;;;6.60;46.30;;;;;;5115628;28;20576;-39
2022/03/25 05:38:21;;;;;;;31.10;21.70;;;6.60;46.40;;;;;;5117589;27;20176;-38
2022/03/25 05:40:48;;;;;;;24.87;20.50;;;6.60;46.60;;;;;;5116106;28;20165;-39
2022/03/25 05:43:14;;;;;;;24.53;20.47;;;6.60;46.70;;;;;;5117989;28;20562;-39
2022/03/25 05:45:40;;;;;;;27.47;22.00;;;6.60;46.90;;;;;;5116072;28;20432;-38
2022/03/25 05:48:06;;;;;;;28.03;22.00;;;6.60;47.00;;;;;;5113461;28;20905;-38
2022/03/25 05:50:33;;;;;;;27.13;22.20;;;6.70;47.20;;;;;;5115513;28;20456;-39
2022/03/25 05:52:58;;;;;;;27.73;21.10;;;6.70;47.30;;;;;;5095887;28;20863;-39
2022/03/25 05:55:24;;;;;;;24.17;19.70;;;6.80;47.50;;;;;;5114396;28;20418;-39
2022/03/25 05:57:50;;;;;;;26.50;21.57;;;6.80;47.50;;;;;;5113503;28;20180;-39
2022/03/25 06:00:16;;;;;;;25.63;20.77;;;6.80;47.50;;;;;;5116269;28;20788;-39
2022/03/25 06:02:44;;;;;;;27.27;20.90;;;6.90;47.50;;;;;;5115834;28;20607;-39
2022/03/25 06:05:13;;;;;;;32.53;23.20;;;7.00;47.40;;;;;;5113932;28;20523;-40
2022/03/25 06:07:43;;;;;;;27.97;21.53;;;7.20;47.30;;;;;;5113253;27;20413;-39
2022/03/25 06:10:11;;;;;;;25.60;20.50;;;7.30;47.20;;;;;;5111773;28;20429;-39
2022/03/25 06:12:37;;;;;;;26.90;21.53;;;7.50;47.00;;;;;;5112509;28;20470;-39
2022/03/25 06:15:05;;;;;;;27.30;22.57;;;7.60;46.70;;;;;;5112535;28;20873;-40
2022/03/25 06:17:30;;;;;;;26.77;22.27;;;7.70;46.40;;;;;;5111798;28;20422;-40
2022/03/25 06:19:56;;;;;;;26.57;21.83;;;7.90;46.20;;;;;;5111276;28;20521;-39
2022/03/25 06:22:24;;;;;;;23.37;20.80;;;8.10;46.00;;;;;;5109542;28;20558;-40
2022/03/25 06:24:53;;;;;;;24.70;21.43;;;8.20;45.50;;;;;;5108324;28;21089;-39
2022/03/25 06:27:21;;;;;;;26.50;21.37;;;8.40;45.20;;;;;;5107211;28;20436;-40
2022/03/25 06:29:46;;;;;;;25.77;21.57;;;8.60;44.90;;;;;;5107389;28;20424;-38
2022/03/25 06:32:12;;;;;;;22.97;20.03;;;8.70;44.60;;;;;;5106233;28;20573;-40
2022/03/25 06:34:38;;;;;;;27.37;21.73;;;8.90;44.30;;;;;;5109528;28;20232;-38
2022/03/25 06:37:04;;;;;;;24.97;21.43;;;9.10;44.10;;;;;;5108806;28;20228;-39
2022/03/25 06:39:30;;;;;;;25.17;19.83;;;9.30;44.30;;;;;;5111190;28;20406;-39
2022/03/25 06:41:56;;;;;;;25.60;21.17;;;9.40;43.50;;;;;;5110251;28;20778;-40
2022/03/25 06:44:24;;;;;;;25.90;21.57;;;9.60;43.30;;;;;;5109342;28;20443;-38
2022/03/25 06:46:49;;;;;;;25.40;21.27;;;9.80;43.00;;;;;;5110518;28;21192;-39
2022/03/25 06:49:15;;;;;;;25.50;20.43;;;10.00;42.00;;;;;;5113127;28;20398;-38
2022/03/25 06:51:41;;;;;;;27.80;21.57;;;10.20;41.80;;;;;;5110110;28;20267;-38
2022/03/25 06:54:07;;;;;;;27.83;23.07;;;10.40;41.50;;;;;;5112002;28;20315;-39
2022/03/25 06:56:36;;;;;;;27.30;21.53;;;10.60;41.30;;;;;;5111265;28;20896;-39
2022/03/25 06:59:04;;;;;;;26.47;21.87;;;10.80;41.00;;;;;;5110977;28;20435;-39
2022/03/25 07:01:34;;;;;;;27.20;21.70;;;11.00;40.70;;;;;;5109631;28;20410;-40
2022/03/25 07:04:03;;;;;;;26.60;22.80;;;11.20;40.30;;;;;;5110644;28;20662;-40
2022/03/25 07:06:31;;;;;;;27.50;22.13;;;11.50;39.90;;;;;;5109676;28;20439;-39
2022/03/25 07:08:57;;;;;;;26.17;21.57;;;11.70;39.50;;;;;;5110870;28;20422;-39
2022/03/25 07:11:26;;;;;;;28.97;23.00;;;12.00;39.00;;;;;;5111428;28;20446;-39
2022/03/25 07:13:53;;;;;;;25.93;21.47;;;12.20;38.50;;;;;;5110753;28;20929;-38
2022/03/25 07:16:19;;;;;;;31.30;22.60;;;12.50;38.60;;;;;;5107981;28;20665;-39
2022/03/25 07:18:45;;;;;;;28.23;21.30;;;12.80;38.00;;;;;;5111997;28;20403;-40
2022/03/25 07:21:12;;;;;;;25.50;20.87;;;13.00;37.90;;;;;;5112486;28;20418;-40
2022/03/25 07:23:38;;;;;;;29.70;24.33;;;13.30;37.70;;;;;;5110789;28;20691;-42
2022/03/25 07:26:05;;;;;;;26.80;21.37;;;13.60;37.50;;;;;;5112930;28;20410;-44
2022/03/25 07:28:31;;;;;;;27.40;23.47;;;13.90;37.30;;;;;;5112335;28;20433;-40
2022/03/25 07:30:57;;;;;;;27.63;22.73;;;14.10;37.00;;;;;;5111735;28;20591;-41
2022/03/25 07:33:22;;;;;;;27.40;22.03;;;14.40;36.50;;;;;;5112247;28;20469;-41
2022/03/25 07:35:48;;;;;;;25.33;21.03;;;14.60;36.20;;;;;;5112447;28;20522;-40
2022/03/25 07:38:14;;;;;;;25.87;22.97;;;14.90;35.90;;;;;;5112393;28;20521;-41
2022/03/25 07:40:40;;;;;;;24.33;21.70;;;15.10;35.50;;;;;;5110724;28;20192;-40
2022/03/25 07:43:06;;;;;;;25.90;20.57;;;15.40;35.10;;;;;;5110759;28;20418;-39
2022/03/25 07:45:31;;;;;;;25.13;22.43;;;15.70;34.80;;;;;;5107371;28;20181;-40
2022/03/25 07:47:57;;;;;;;25.13;21.73;;;15.90;34.50;;;;;;5108382;28;20491;-40
2022/03/25 07:50:23;;;;;;;26.33;22.77;;;16.30;34.30;;;;;;5108240;28;20180;-40
2022/03/25 07:52:50;;;;;;;27.23;23.57;;;16.50;33.90;;;;;;5108884;28;20333;-40
2022/03/25 07:55:18;;;;;;;26.97;22.27;;;16.80;33.70;;;;;;5108118;28;20418;-42
2022/03/25 07:57:44;;;;;;;30.87;22.93;;;17.10;33.40;;;;;;5108618;28;20989;-40
2022/03/25 08:00:11;;;;;;;18.43;15.03;;;17.40;33.30;;;;;;5110914;28;20483;-41
2022/03/25 08:02:39;;;;;;;14.47;12.60;;;17.80;36.00;;;;;;5111448;28;20421;-41
2022/03/25 08:05:06;;;;;;;15.77;14.17;;;18.20;37.90;;;;;;5110071;28;20485;-41
2022/03/25 08:07:38;;;;;;;17.77;15.87;;;18.70;38.20;;;;;;5108944;28;20439;-39
2022/03/25 08:10:04;;;;;;;22.30;14.97;;;19.10;37.20;;;;;;5108201;28;20426;-41
2022/03/25 08:12:30;;;;;;;19.07;16.73;;;19.50;37.10;;;;;;5106611;28;20634;-38
2022/03/25 08:14:56;;;;;;;16.87;15.20;;;19.90;36.70;;;;;;5108973;28;20475;-39
2022/03/25 08:17:23;;;;;;;20.53;16.23;;;20.20;36.70;;;;;;5109017;28;20546;-38
2022/03/25 08:19:50;;;;;;;20.43;18.33;;;20.60;35.40;;;;;;5108876;28;20776;-40
2022/03/25 08:22:17;;;;;;;20.17;18.17;;;20.90;34.50;;;;;;5109231;28;20409;-39
2022/03/25 08:30:11;;;;;;;24.57;19.50;;;21.90;32.70;;;;;;5107214;28;20522;-39
2022/03/25 08:32:36;;;;;;;21.13;17.30;;;22.20;31.90;;;;;;5107049;28;20729;-40
2022/03/25 08:35:03;;;;;;;22.97;19.90;;;22.40;32.00;;;;;;5108835;28;20746;-39
2022/03/25 08:37:29;;;;;;;22.97;20.20;;;22.70;31.10;;;;;;5108612;28;20267;-39
2022/03/25 08:39:55;;;;;;;27.33;24.43;;;23.10;30.40;;;;;;5110303;28;20519;-41
2022/03/25 08:42:20;;;;;;;25.83;22.43;;;23.40;29.90;;;;;;5113392;28;20592;-43
2022/03/25 08:44:46;;;;;;;28.10;23.63;;;23.80;29.60;;;;;;5112484;28;20436;-41
2022/03/25 08:47:12;;;;;;;26.40;23.17;;;24.10;29.30;;;;;;5111854;28;20487;-40
2022/03/25 08:49:39;;;;;;;26.90;24.03;;;24.40;29.20;;;;;;5112581;28;20261;-40
2022/03/25 08:52:06;;;;;;;24.43;21.83;;;24.80;29.00;;;;;;5110789;28;20184;-41
2022/03/25 08:54:35;;;;;;;28.73;24.37;;;25.10;28.40;;;;;;5113695;28;20420;-38
2022/03/25 08:57:02;;;;;;;28.87;25.80;;;25.50;28.00;;;;;;5111243;28;20527;-40
2022/03/25 08:59:29;;;;;;;30.77;26.17;;;25.80;27.40;;;;;;5110426;28;20666;-41
2022/03/25 09:01:56;;;;;;;31.27;27.93;;;26.10;26.90;;;;;;5111589;28;20417;-39
2022/03/25 09:04:21;;;;;;;27.57;24.57;;;26.50;26.70;;;;;;5111911;28;20511;-39
2022/03/25 09:06:48;;;;;;;28.13;24.90;;;26.80;26.50;;;;;;5110860;28;21072;-42
2022/03/25 09:09:14;;;;;;;28.73;25.90;;;27.10;26.20;;;;;;5090855;28;20296;-40
2022/03/25 09:11:40;;;;;;;27.80;24.90;;;27.50;26.10;;;;;;5107885;28;20456;-42
2022/03/25 09:14:07;;;;;;;27.97;25.13;;;27.80;25.90;;;;;;5113885;28;20959;-40
2022/03/25 09:16:34;;;;;;;27.80;25.00;;;28.10;25.80;;;;;;5114562;28;20509;-43
2022/03/25 09:19:00;;;;;;;26.93;24.20;;;28.50;25.80;;;;;;5110316;28;20837;-42
2022/03/25 09:21:25;;;;;;;28.60;25.63;;;28.70;25.80;;;;;;5109891;28;20485;-41
2022/03/25 09:23:53;;;;;;;27.20;23.77;;;29.00;25.90;;;;;;5111839;28;20195;-40
2022/03/25 09:26:18;;;;;;;28.47;25.80;;;29.30;25.80;;;;;;5111923;28;20199;-44
2022/03/25 09:28:44;;;;;;;17.17;15.50;;;29.60;25.40;;;;;;5111961;28;20427;-43
2022/03/25 09:31:10;;;;;;;14.93;13.53;;;29.70;27.20;;;;;;5113381;28;20168;-41
2022/03/25 09:33:37;;;;;;;16.47;14.70;;;29.80;27.60;;;;;;5113040;28;20234;-41
2022/03/25 09:36:03;;;;;;;16.07;14.53;;;30.00;27.70;;;;;;5113664;28;20949;-41
2022/03/25 09:38:29;;;;;;;14.93;13.53;;;30.20;27.80;;;;;;5115554;28;20432;-44
2022/03/25 09:40:57;;;;;;;18.80;16.90;;;30.40;27.70;;;;;;5112498;28;20855;-42
2022/03/25 09:43:23;;;;;;;16.07;14.67;;;30.70;27.20;;;;;;5113046;28;20203;-42
2022/03/25 09:45:49;;;;;;;15.17;13.57;;;30.90;27.30;;;;;;5114072;28;20433;-42
2022/03/25 09:48:14;;;;;;;13.90;12.50;;;31.10;27.40;;;;;;5113027;28;20316;-43
2022/03/25 09:50:40;;;;;;;14.63;13.33;;;31.40;27.40;;;;;;5108018;28;20424;-43
2022/03/25 09:53:07;;;;;;;19.33;17.43;;;31.60;26.90;;;;;;5108587;28;20351;-41
2022/03/25 09:55:40;;;;;;;17.33;15.80;;;31.90;26.30;;;;;;5108285;28;20645;-44
2022/03/25 09:58:06;;;;;;;19.80;17.90;;;32.10;26.20;;;;;;5108589;28;20666;-44
2022/03/25 10:00:32;;;;;;;20.33;18.53;;;32.40;25.90;;;;;;5106583;28;20426;-41
2022/03/25 10:02:57;;;;;;;18.97;17.07;;;32.50;25.50;;;;;;5108884;28;20735;-44
2022/03/25 10:05:23;;;;;;;23.70;21.50;;;32.80;25.60;;;;;;5108129;28;20207;-43
2022/03/25 10:07:55;;;;;;;19.03;17.13;;;33.00;24.90;;;;;;5109377;27;20477;-43
2022/03/25 10:10:23;;;;;;;17.13;15.60;;;33.20;25.20;;;;;;5111540;28;20179;-41
2022/03/25 10:12:51;;;;;;;18.77;17.10;;;33.40;25.30;;;;;;5111802;28;20453;-43
2022/03/25 10:15:21;;;;;;;17.30;15.70;;;33.70;25.20;;;;;;5110908;28;20420;-43
2022/03/25 10:18:04;;;;;;;18.53;16.87;;;34.00;25.00;;;;;;5110851;28;20388;-44
2022/03/25 10:20:39;;;;;;;18.93;17.33;;;34.20;24.70;;;;;;5108860;28;20402;-43
2022/03/25 10:23:17;;;;;;;17.73;16.13;;;34.50;24.70;;;;;;5111979;28;20422;-44
2022/03/25 10:25:55;;;;;;;16.00;14.53;;;34.70;24.90;;;;;;5111005;28;20430;-44
2022/03/25 10:28:28;;;;;;;17.00;15.40;;;34.90;24.50;;;;;;5111691;28;20567;-46
2022/03/25 10:31:02;;;;;;;14.03;12.93;;;35.10;24.30;;;;;;5110402;28;20396;-46
2022/03/25 10:33:42;;;;;;;14.40;13.17;;;35.10;24.20;;;;;;5110258;28;20552;-43
2022/03/25 10:36:09;;;;;;;14.17;13.13;;;34.90;24.30;;;;;;5105640;28;20461;-43
2022/03/25 10:39:00;;;;;;;14.53;13.33;;;34.60;24.50;;;;;;5109837;28;20401;-49
2022/03/25 10:41:40;;;;;;;13.73;12.43;;;34.60;24.40;;;;;;5109522;28;20444;-47
2022/03/25 10:44:08;;;;;;;14.30;13.10;;;34.60;24.40;;;;;;5109897;28;20951;-43
2022/03/25 10:46:42;;;;;;;15.33;14.10;;;34.60;23.70;;;;;;5108463;28;20446;-42
2022/03/25 10:49:12;;;;;;;15.43;13.93;;;34.60;24.50;;;;;;5111487;28;20381;-46
2022/03/25 10:51:41;;;;;;;12.03;11.03;;;34.30;24.00;;;;;;5110969;28;20428;-45
2022/03/25 10:54:08;;;;;;;12.73;11.53;;;34.40;24.80;;;;;;5107496;28;20551;-45
2022/03/25 10:56:55;;;;;;;11.70;10.80;;;34.60;24.50;;;;;;5107770;28;20425;-47
2022/03/25 10:59:31;;;;;;;11.13;10.13;;;34.80;24.60;;;;;;5111042;28;20472;-43
2022/03/25 11:02:01;;;;;;;14.07;12.97;;;35.00;24.20;;;;;;5106931;28;20436;-46
2022/03/25 11:04:27;;;;;;;11.50;10.60;;;35.20;24.20;;;;;;5107962;28;20388;-47
2022/03/25 11:06:53;;;;;;;16.27;14.77;;;35.40;24.20;;;;;;5108518;28;20480;-46
2022/03/25 11:09:20;;;;;;;11.83;10.80;;;35.40;23.40;;;;;;5110395;28;20198;-51
2022/03/25 11:11:48;;;;;;;12.73;11.63;;;35.40;24.30;;;;;;5108992;28;20427;-45
2022/03/25 11:14:15;;;;;;;13.07;12.07;;;35.50;24.30;;;;;;5110415;28;20809;-45
2022/03/25 11:16:46;;;;;;;12.67;11.77;;;35.60;23.60;;;;;;5108923;28;20720;-45
2022/03/25 11:19:13;;;;;;;13.00;12.07;;;35.70;23.80;;;;;;5111175;27;20390;-43
2022/03/25 11:21:46;;;;;;;13.07;12.10;;;35.90;23.50;;;;;;5111535;28;20439;-43
2022/03/25 11:24:19;;;;;;;21.17;19.40;;;35.90;23.50;;;;;;5110420;28;20425;-44
2022/03/25 11:26:47;;;;;;;15.60;14.40;;;35.90;22.20;;;;;;5108875;28;20432;-44
2022/03/25 11:29:15;;;;;;;17.23;15.83;;;36.00;22.90;;;;;;5110902;28;20688;-43
2022/03/25 11:32:11;;;;;;;17.20;15.90;;;36.10;22.60;;;;;;5110967;28;20421;-44
2022/03/25 11:34:47;;;;;;;17.20;15.80;;;36.20;22.70;;;;;;5096095;28;20425;-47
2022/03/25 11:37:17;;;;;;;15.00;13.80;;;36.20;22.60;;;;;;5107885;28;20440;-46
2022/03/25 11:39:43;;;;;;;16.60;15.40;;;36.40;22.90;;;;;;5105676;28;20462;-46
2022/03/25 11:42:41;;;;;;;15.03;13.80;;;36.50;22.80;;;;;;5089588;28;20434;-45
2022/03/25 11:45:37;;;;;;;16.73;15.23;;;36.60;22.70;;;;;;5101257;28;20171;-44
2022/03/25 11:48:06;;;;;;;14.53;13.40;;;36.70;22.80;;;;;;5093266;28;20437;-45
2022/03/25 11:50:32;;;;;;;14.00;12.80;;;36.90;22.90;;;;;;5111690;28;20400;-44
2022/03/25 11:52:59;;;;;;;14.27;13.17;;;36.90;22.90;;;;;;5106299;28;20691;-43
2022/03/25 11:55:25;;;;;;;15.63;14.50;;;37.00;22.60;;;;;;5088833;28;20533;-45
2022/03/25 11:57:51;;;;;;;15.47;14.23;;;37.00;22.60;;;;;;5104617;28;20725;-46
2022/03/25 12:00:28;;;;;;;14.43;13.43;;;37.10;22.60;;;;;;5088322;28;20596;-45
2022/03/25 12:03:06;;;;;;;14.73;13.63;;;37.20;22.40;;;;;;5105477;28;20248;-44
2022/03/25 12:05:33;;;;;;;18.47;17.10;;;37.30;21.80;;;;;;5101290;28;21037;-46
2022/03/25 12:08:20;;;;;;;16.00;14.70;;;37.30;21.50;;;;;;5105589;28;20512;-46
2022/03/25 12:10:47;;;;;;;14.23;13.13;;;37.30;22.00;;;;;;5106442;28;20636;-48
2022/03/25 12:13:12;;;;;;;14.23;13.20;;;37.40;22.40;;;;;;5101538;28;20489;-42
2022/03/25 12:15:45;;;;;;;15.00;13.80;;;37.50;22.20;;;;;;5102777;28;20677;-46
2022/03/25 12:18:45;;;;;;;14.50;13.40;;;37.60;22.10;;;;;;5104889;28;20401;-43
2022/03/25 12:21:31;;;;;;;13.80;12.80;;;37.70;22.20;;;;;;5109190;28;20406;-45
2022/03/25 12:24:01;;;;;;;14.77;13.67;;;37.90;22.20;;;;;;5111228;28;20471;-42
2022/03/25 12:26:35;;;;;;;13.80;12.80;;;38.00;21.90;;;;;;5111130;28;20390;-45
2022/03/25 12:29:01;;;;;;;13.93;12.83;;;38.20;22.00;;;;;;5112429;28;20441;-43
2022/03/25 12:31:29;;;;;;;14.70;13.50;;;38.30;21.80;;;;;;5114028;28;20456;-47
2022/03/25 12:34:02;;;;;;;13.27;12.20;;;38.30;21.70;;;;;;5114007;27;20451;-45
2022/03/25 12:36:52;;;;;;;16.93;15.60;;;38.40;21.70;;;;;;5113383;28;20470;-44
2022/03/25 12:39:37;;;;;;;13.13;12.23;;;38.40;21.40;;;;;;5111834;28;20441;-44
2022/03/25 12:42:13;;;;;;;15.50;14.20;;;38.60;21.60;;;;;;5111555;28;20524;-45
2022/03/25 12:44:39;;;;;;;13.50;12.50;;;38.70;21.50;;;;;;5112375;28;20419;-44